Observation data for Olton on 07/10/2018      Previous  Date       Current Mesonet Observations  Soil Data  Daily Summary Page  Observations in Plain Language
KONS 100500Z 21004KT 21/15 A3026 RMK A01 T02090154  RH  072%=      5-min Rain = 0
KONS 100505Z 21005KT 21/15 A3026 RMK A01 T02080154  RH  073%=      5-min Rain = 0
KONS 100510Z 20005KT 21/15 A3026 RMK A01 T02070153  RH  073%=      5-min Rain = 0
KONS 100515Z 20005KT 21/15 A3027 RMK A01 T02050152  RH  073%=      5-min Rain = 0
KONS 100520Z 21005KT 20/15 A3027 RMK A01 T02040152  RH  074%=      5-min Rain = 0
KONS 100525Z 20005KT 20/15 A3027 RMK A01 T02030151  RH  074%=      5-min Rain = 0
KONS 100530Z 20005KT 20/15 A3027 RMK A01 T02010151  RH  074%=      5-min Rain = 0
KONS 100535Z 20004KT 20/15 A3027 RMK A01 T02000152  RH  075%=      5-min Rain = 0
KONS 100540Z 21004KT 20/15 A3027 RMK A01 T02000152  RH  076%=      5-min Rain = 0
KONS 100545Z 21004KT 20/15 A3027 RMK A01 T02000153  RH  076%=      5-min Rain = 0
KONS 100550Z 21004KT 20/15 A3026 RMK A01 T02000154  RH  076%=      5-min Rain = 0
KONS 100555Z 21004KT 20/16 A3026 RMK A01 T02020156  RH  076%=      5-min Rain = 0
KONS 100600Z 21005KT 20/16 A3026 RMK A01 T02030156  RH  076%=      5-min Rain = 0
KONS 100605Z 21004KT 20/16 A3026 RMK A01 T02030155  RH  076%=      5-min Rain = 0
KONS 100610Z 22004KT 20/16 A3026 RMK A01 T02020156  RH  076%=      5-min Rain = 0
KONS 100615Z 21005KT 20/16 A3026 RMK A01 T02030156  RH  076%=      5-min Rain = 0
KONS 100620Z 22005KT 20/16 A3026 RMK A01 T02020155  RH  076%=      5-min Rain = 0
KONS 100625Z 22005KT 20/15 A3026 RMK A01 T01990152  RH  076%=      5-min Rain = 0
KONS 100630Z 22005KT 20/15 A3026 RMK A01 T01960151  RH  077%=      5-min Rain = 0
KONS 100635Z 22005KT 20/15 A3026 RMK A01 T01950152  RH  078%=      5-min Rain = 0
KONS 100640Z 23005KT 20/15 A3027 RMK A01 T01950153  RH  078%=      5-min Rain = 0
KONS 100645Z 23006KT 19/15 A3026 RMK A01 T01920151  RH  079%=      5-min Rain = 0
KONS 100650Z 23005KT 19/15 A3027 RMK A01 T01900152  RH  080%=      5-min Rain = 0
KONS 100655Z 24006KT 19/15 A3026 RMK A01 T01880151  RH  081%=      5-min Rain = 0
KONS 100700Z 24005KT 19/15 A3026 RMK A01 T01860151  RH  082%=      5-min Rain = 0
KONS 100705Z 23004KT 19/16 A3026 RMK A01 T01890155  RH  082%=      5-min Rain = 0
KONS 100710Z 24004KT 19/16 A3026 RMK A01 T01930158  RH  082%=      5-min Rain = 0
KONS 100715Z 23006KT 19/15 A3026 RMK A01 T01900153  RH  081%=      5-min Rain = 0
KONS 100720Z 23005KT 19/16 A3026 RMK A01 T01910159  RH  083%=      5-min Rain = 0
KONS 100725Z 24005KT 20/16 A3026 RMK A01 T01950160  RH  082%=      5-min Rain = 0
KONS 100730Z 24005KT 19/16 A3026 RMK A01 T01940158  RH  082%=      5-min Rain = 0
KONS 100735Z 24005KT 19/16 A3026 RMK A01 T01910156  RH  082%=      5-min Rain = 0
KONS 100740Z 24005KT 19/15 A3026 RMK A01 T01880154  RH  083%=      5-min Rain = 0
KONS 100745Z 24005KT 19/15 A3026 RMK A01 T01850153  RH  084%=      5-min Rain = 0
KONS 100750Z 24004KT 19/15 A3026 RMK A01 T01850154  RH  084%=      5-min Rain = 0
KONS 100755Z 24004KT 19/16 A3026 RMK A01 T01850156  RH  085%=      5-min Rain = 0
KONS 100800Z 24004KT 19/16 A3026 RMK A01 T01850155  RH  084%=      5-min Rain = 0
KONS 100805Z 23004KT 19/16 A3026 RMK A01 T01850156  RH  085%=      5-min Rain = 0
KONS 100810Z 23003KT 19/16 A3026 RMK A01 T01870158  RH  085%=      5-min Rain = 0
KONS 100815Z 23003KT 19/16 A3026 RMK A01 T01890159  RH  085%=      5-min Rain = 0
KONS 100820Z 22004KT 19/16 A3026 RMK A01 T01890159  RH  084%=      5-min Rain = 0
KONS 100825Z 21004KT 19/16 A3026 RMK A01 T01870156  RH  084%=      5-min Rain = 0
KONS 100830Z 23004KT 19/16 A3026 RMK A01 T01870157  RH  085%=      5-min Rain = 0
KONS 100835Z 22004KT 19/16 A3026 RMK A01 T01860155  RH  084%=      5-min Rain = 0
KONS 100840Z 19003KT 18/15 A3026 RMK A01 T01820152  RH  084%=      5-min Rain = 0
KONS 100845Z 21004KT 18/16 A3026 RMK A01 T01840157  RH  086%=      5-min Rain = 0
KONS 100850Z 20003KT 19/16 A3026 RMK A01 T01860158  RH  086%=      5-min Rain = 0
KONS 100855Z 19003KT 18/16 A3026 RMK A01 T01840155  RH  085%=      5-min Rain = 0
KONS 100900Z 22002KT 18/16 A3026 RMK A01 T01830155  RH  085%=      5-min Rain = 0
KONS 100905Z 19003KT 18/15 A3026 RMK A01 T01820154  RH  085%=      5-min Rain = 0
KONS 100910Z 22003KT 18/16 A3026 RMK A01 T01820155  RH  086%=      5-min Rain = 0
KONS 100915Z 22003KT 18/15 A3026 RMK A01 T01810152  RH  085%=      5-min Rain = 0
KONS 100920Z 19002KT 18/15 A3026 RMK A01 T01780150  RH  085%=      5-min Rain = 0
KONS 100925Z 23002KT 18/15 A3026 RMK A01 T01770151  RH  086%=      5-min Rain = 0
KONS 100930Z 22002KT 18/15 A3026 RMK A01 T01770149  RH  086%=      5-min Rain = 0
KONS 100935Z 21003KT 18/15 A3026 RMK A01 T01760150  RH  087%=      5-min Rain = 0
KONS 100940Z 21002KT 18/15 A3026 RMK A01 T01750149  RH  086%=      5-min Rain = 0
KONS 100945Z 22001KT 18/15 A3026 RMK A01 T01750148  RH  086%=      5-min Rain = 0
KONS 100950Z 22001KT 18/15 A3026 RMK A01 T01750150  RH  087%=      5-min Rain = 0
KONS 100955Z 24000KT 18/15 A3026 RMK A01 T01750151  RH  087%=      5-min Rain = 0
KONS 101000Z 24001KT 18/15 A3026 RMK A01 T01760152  RH  088%=      5-min Rain = 0
KONS 101005Z 22001KT 18/15 A3026 RMK A01 T01750152  RH  088%=      5-min Rain = 0
KONS 101010Z 22001KT 17/15 A3026 RMK A01 T01740151  RH  088%=      5-min Rain = 0
KONS 101015Z 23002KT 18/15 A3026 RMK A01 T01760153  RH  089%=      5-min Rain = 0
KONS 101020Z 22001KT 18/15 A3026 RMK A01 T01760153  RH  089%=      5-min Rain = 0
KONS 101025Z 21000KT 18/15 A3026 RMK A01 T01760154  RH  088%=      5-min Rain = 0
KONS 101030Z 18001KT 18/15 A3026 RMK A01 T01750152  RH  088%=      5-min Rain = 0
KONS 101035Z 19002KT 18/15 A3026 RMK A01 T01750153  RH  089%=      5-min Rain = 0
KONS 101040Z 19002KT 18/15 A3026 RMK A01 T01760154  RH  089%=      5-min Rain = 0
KONS 101045Z 20002KT 18/16 A3026 RMK A01 T01780156  RH  089%=      5-min Rain = 0
KONS 101050Z 20002KT 18/16 A3026 RMK A01 T01780157  RH  089%=      5-min Rain = 0
KONS 101055Z 21002KT 18/15 A3026 RMK A01 T01770154  RH  088%=      5-min Rain = 0
KONS 101100Z 22002KT 17/15 A3026 RMK A01 T01730150  RH  088%=      5-min Rain = 0
KONS 101105Z 21002KT 17/15 A3026 RMK A01 T01720150  RH  088%=      5-min Rain = 0
KONS 101110Z 20001KT 17/15 A3027 RMK A01 T01720149  RH  088%=      5-min Rain = 0
KONS 101115Z 18001KT 17/15 A3027 RMK A01 T01710149  RH  088%=      5-min Rain = 0
KONS 101120Z 19001KT 17/15 A3027 RMK A01 T01730151  RH  089%=      5-min Rain = 0
KONS 101125Z 18001KT 17/15 A3027 RMK A01 T01730150  RH  089%=      5-min Rain = 0
KONS 101130Z 21001KT 17/15 A3027 RMK A01 T01720150  RH  089%=      5-min Rain = 0
KONS 101135Z 33000KT 17/15 A3027 RMK A01 T01700147  RH  088%=      5-min Rain = 0
KONS 101140Z 32000KT 17/14 A3027 RMK A01 T01660143  RH  088%=      5-min Rain = 0
KONS 101145Z 33001KT 16/14 A3027 RMK A01 T01630141  RH  088%=      5-min Rain = 0
KONS 101150Z 32001KT 16/14 A3027 RMK A01 T01610139  RH  089%=      5-min Rain = 0
KONS 101155Z 33002KT 16/14 A3027 RMK A01 T01610139  RH  089%=      5-min Rain = 0
KONS 101200Z 33003KT 16/14 A3027 RMK A01 T01580135  RH  088%=      5-min Rain = 0
KONS 101205Z 34004KT 16/14 A3027 RMK A01 T01580135  RH  088%=      5-min Rain = 0
KONS 101210Z 33004KT 16/14 A3027 RMK A01 T01590137  RH  089%=      5-min Rain = 0
KONS 101215Z 33004KT 16/14 A3027 RMK A01 T01610140  RH  089%=      5-min Rain = 0
KONS 101220Z 31003KT 16/14 A3027 RMK A01 T01640143  RH  089%=      5-min Rain = 0
KONS 101225Z 30002KT 17/15 A3027 RMK A01 T01680146  RH  089%=      5-min Rain = 0
KONS 101230Z 30003KT 17/15 A3027 RMK A01 T01720151  RH  089%=      5-min Rain = 0
KONS 101235Z 30002KT 18/16 A3027 RMK A01 T01790157  RH  089%=      5-min Rain = 0
KONS 101240Z 30001KT 18/16 A3027 RMK A01 T01840162  RH  089%=      5-min Rain = 0
KONS 101245Z 29001KT 19/16 A3027 RMK A01 T01880164  RH  088%=      5-min Rain = 0
KONS 101250Z 30002KT 19/17 A3027 RMK A01 T01910166  RH  087%=      5-min Rain = 0
KONS 101255Z 31002KT 20/17 A3027 RMK A01 T01950168  RH  086%=      5-min Rain = 0
KONS 101300Z 31002KT 20/17 A3027 RMK A01 T01990169  RH  085%=      5-min Rain = 0
KONS 101305Z 30002KT 20/17 A3027 RMK A01 T02010169  RH  084%=      5-min Rain = 0
KONS 101310Z 31001KT 21/17 A3027 RMK A01 T02050170  RH  082%=      5-min Rain = 0
KONS 101315Z 31001KT 21/17 A3027 RMK A01 T02090169  RH  080%=      5-min Rain = 0
KONS 101320Z 31001KT 21/17 A3027 RMK A01 T02140168  RH  077%=      5-min Rain = 0
KONS 101325Z 34002KT 22/17 A3028 RMK A01 T02170167  RH  075%=      5-min Rain = 0
KONS 101330Z 35002KT 22/16 A3028 RMK A01 T02210164  RH  072%=      5-min Rain = 0
KONS 101335Z 35002KT 22/16 A3028 RMK A01 T02240164  RH  070%=      5-min Rain = 0
KONS 101340Z 35001KT 23/16 A3028 RMK A01 T02270164  RH  069%=      5-min Rain = 0
KONS 101345Z 31001KT 23/17 A3028 RMK A01 T02330165  RH  067%=      5-min Rain = 0
KONS 101350Z 26000KT 24/16 A3028 RMK A01 T02350163  RH  066%=      5-min Rain = 0
KONS 101355Z 32000KT 24/17 A3028 RMK A01 T02410165  RH  064%=      5-min Rain = 0
KONS 101400Z 06001KT 25/17 A3028 RMK A01 T02480165  RH  061%=      5-min Rain = 0
KONS 101405Z 08002KT 25/16 A3029 RMK A01 T02500162  RH  060%=      5-min Rain = 0
KONS 101410Z 12002KT 25/16 A3029 RMK A01 T02480160  RH  059%=      5-min Rain = 0
KONS 101415Z 14002KT 25/16 A3029 RMK A01 T02460158  RH  059%=      5-min Rain = 0
KONS 101420Z 16002KT 25/16 A3029 RMK A01 T02470155  RH  058%=      5-min Rain = 0
KONS 101425Z 17002KT 25/15 A3028 RMK A01 T02480154  RH  057%=      5-min Rain = 0
KONS 101430Z 13002KT 25/15 A3028 RMK A01 T02470154  RH  057%=      5-min Rain = 0
KONS 101435Z 11001KT 25/15 A3028 RMK A01 T02490153  RH  056%=      5-min Rain = 0
KONS 101440Z 14000KT 26/15 A3029 RMK A01 T02550153  RH  054%=      5-min Rain = 0
KONS 101445Z 22001KT 26/15 A3029 RMK A01 T02580153  RH  053%=      5-min Rain = 0
KONS 101450Z 25001KT 26/15 A3029 RMK A01 T02560151  RH  053%=      5-min Rain = 0
KONS 101455Z 22001KT 26/15 A3028 RMK A01 T02550150  RH  053%=      5-min Rain = 0
KONS 101500Z 13002KT 26/15 A3028 RMK A01 T02580152  RH  053%=      5-min Rain = 0
KONS 101505Z 11002KT 26/15 A3028 RMK A01 T02590154  RH  053%=      5-min Rain = 0
KONS 101510Z 04004KT 26/15 A3028 RMK A01 T02610151  RH  052%=      5-min Rain = 0
KONS 101515Z 04000KT 26/15 A3028 RMK A01 T02590152  RH  053%=      5-min Rain = 0
KONS 101520Z 14002KT 27/15 A3028 RMK A01 T02660153  RH  051%=      5-min Rain = 0
KONS 101525Z 13003KT 27/15 A3028 RMK A01 T02680150  RH  049%=      5-min Rain = 0
KONS 101530Z 14003KT 27/15 A3027 RMK A01 T02670150  RH  050%=      5-min Rain = 0
KONS 101535Z 14002KT 27/15 A3027 RMK A01 T02680150  RH  049%=      5-min Rain = 0
KONS 101540Z 18003KT 27/15 A3027 RMK A01 T02660148  RH  049%=      5-min Rain = 0
KONS 101545Z 17002KT 27/15 A3027 RMK A01 T02660147  RH  049%=      5-min Rain = 0
KONS 101550Z 12003KT 27/15 A3027 RMK A01 T02670146  RH  049%=      5-min Rain = 0
KONS 101555Z 15002KT 27/15 A3027 RMK A01 T02710146  RH  047%=      5-min Rain = 0
KONS 101600Z 11001KT 27/15 A3027 RMK A01 T02730145  RH  046%=      5-min Rain = 0
KONS 101605Z 27002KT 28/14 A3027 RMK A01 T02760144  RH  045%=      5-min Rain = 0
KONS 101610Z 15003KT 28/15 A3026 RMK A01 T02760145  RH  046%=      5-min Rain = 0
KONS 101615Z 17002KT 28/14 A3027 RMK A01 T02790143  RH  044%=      5-min Rain = 0
KONS 101620Z 17001KT 28/14 A3026 RMK A01 T02790144  RH  044%=      5-min Rain = 0
KONS 101625Z 13003KT 28/14 A3026 RMK A01 T02840144  RH  043%=      5-min Rain = 0
KONS 101630Z 14003KT 28/14 A3026 RMK A01 T02810142  RH  043%=      5-min Rain = 0
KONS 101635Z 16003KT 28/14 A3026 RMK A01 T02830142  RH  043%=      5-min Rain = 0
KONS 101640Z 09003KT 28/14 A3026 RMK A01 T02820142  RH  043%=      5-min Rain = 0
KONS 101645Z 11004G10KT 29/14 A3026 RMK A01 T02850142  RH  043%=      5-min Rain = 0
KONS 101650Z 10005KT 29/14 A3026 RMK A01 T02880141  RH  042%=      5-min Rain = 0
KONS 101655Z 11006KT 29/14 A3026 RMK A01 T02890138  RH  040%=      5-min Rain = 0
KONS 101700Z 12005KT 29/14 A3026 RMK A01 T02910141  RH  041%=      5-min Rain = 0
KONS 101705Z 12007KT 29/14 A3026 RMK A01 T02910139  RH  040%=      5-min Rain = 0
KONS 101710Z 13005KT 29/14 A3026 RMK A01 T02900139  RH  041%=      5-min Rain = 0
KONS 101715Z 16006KT 29/14 A3025 RMK A01 T02920139  RH  040%=      5-min Rain = 0
KONS 101720Z 15007G12KT 29/14 A3025 RMK A01 T02930139  RH  040%=      5-min Rain = 0
KONS 101725Z 15007KT 29/14 A3025 RMK A01 T02940137  RH  039%=      5-min Rain = 0
KONS 101730Z 16007KT 29/13 A3025 RMK A01 T02940134  RH  038%=      5-min Rain = 0
KONS 101735Z 12005KT 29/14 A3025 RMK A01 T02940139  RH  039%=      5-min Rain = 0
KONS 101740Z 11007KT 30/14 A3025 RMK A01 T02950138  RH  039%=      5-min Rain = 0
KONS 101745Z 11006KT 30/14 A3025 RMK A01 T02970139  RH  039%=      5-min Rain = 0
KONS 101750Z 12006G13KT 30/14 A3024 RMK A01 T02960139  RH  039%=      5-min Rain = 0
KONS 101755Z 12009KT 30/14 A3024 RMK A01 T03020141  RH  038%=      5-min Rain = 0
KONS 101800Z 09010KT 30/14 A3024 RMK A01 T03020137  RH  037%=      5-min Rain = 0
KONS 101805Z 13005G12KT 30/14 A3024 RMK A01 T02990137  RH  038%=      5-min Rain = 0
KONS 101810Z 10007G13KT 30/13 A3024 RMK A01 T02990134  RH  037%=      5-min Rain = 0
KONS 101815Z 10010KT 30/13 A3023 RMK A01 T03000131  RH  036%=      5-min Rain = 0
KONS 101820Z 11009KT 30/13 A3023 RMK A01 T03030129  RH  035%=      5-min Rain = 0
KONS 101825Z 12008G13KT 30/12 A3023 RMK A01 T03000120  RH  034%=      5-min Rain = 0
KONS 101830Z 10008G13KT 30/13 A3023 RMK A01 T03030127  RH  035%=      5-min Rain = 0
KONS 101835Z 11007G15KT 30/13 A3022 RMK A01 T03020129  RH  035%=      5-min Rain = 0
KONS 101840Z 12009KT 31/13 A3022 RMK A01 T03080128  RH  034%=      5-min Rain = 0
KONS 101845Z 10007G12KT 31/13 A3022 RMK A01 T03070133  RH  035%=      5-min Rain = 0
KONS 101850Z 12006G11KT 30/14 A3022 RMK A01 T03040135  RH  036%=      5-min Rain = 0
KONS 101855Z 12008G13KT 30/13 A3022 RMK A01 T03000130  RH  036%=      5-min Rain = 0
KONS 101900Z 10009KT 30/13 A3021 RMK A01 T02980130  RH  036%=      5-min Rain = 0
KONS 101905Z 14006KT 30/13 A3021 RMK A01 T03010134  RH  037%=      5-min Rain = 0
KONS 101910Z 15007G15KT 30/13 A3021 RMK A01 T03010131  RH  036%=      5-min Rain = 0
KONS 101915Z 14009G15KT 30/14 A3021 RMK A01 T03000141  RH  039%=      5-min Rain = 0
KONS 101920Z 17010KT 31/14 A302 RMK A01 T03090137  RH  036%=      5-min Rain = 0
KONS 101925Z 17005G11KT 31/14 A302 RMK A01 T03080137  RH  036%=      5-min Rain = 0
KONS 101930Z 10006G12KT 31/14 A302 RMK A01 T03050135  RH  036%=      5-min Rain = 0
KONS 101935Z 14006G12KT 30/14 A302 RMK A01 T02990136  RH  038%=      5-min Rain = 0
KONS 101940Z 17009KT 30/13 A3019 RMK A01 T03010134  RH  037%=      5-min Rain = 0
KONS 101945Z 15009G16KT 31/13 A3019 RMK A01 T03070130  RH  035%=      5-min Rain = 0
KONS 101950Z 12006G11KT 30/13 A3019 RMK A01 T02970130  RH  037%=      5-min Rain = 0
KONS 101955Z 12006KT 30/13 A3019 RMK A01 T02970129  RH  036%=      5-min Rain = 0
KONS 102000Z 15011KT 30/13 A3018 RMK A01 T03020130  RH  036%=      5-min Rain = 0
KONS 102005Z 15003KT 31/13 A3018 RMK A01 T03090126  RH  033%=      5-min Rain = 0
KONS 102010Z 17008G14KT 31/13 A3018 RMK A01 T03100127  RH  033%=      5-min Rain = 0
KONS 102015Z 15009KT 31/13 A3018 RMK A01 T03140129  RH  033%=      5-min Rain = 0
KONS 102020Z 12007KT 32/13 A3017 RMK A01 T03180127  RH  032%=      5-min Rain = 0
KONS 102025Z 12008G15KT 31/13 A3017 RMK A01 T03140128  RH  033%=      5-min Rain = 0
KONS 102030Z 12011G17KT 31/13 A3017 RMK A01 T03060133  RH  035%=      5-min Rain = 0
KONS 102035Z 13008KT 31/13 A3017 RMK A01 T03120134  RH  035%=      5-min Rain = 0
KONS 102040Z 15012KT 32/13 A3016 RMK A01 T03170129  RH  032%=      5-min Rain = 0
KONS 102045Z 16006KT 31/13 A3016 RMK A01 T03080130  RH  034%=      5-min Rain = 0
KONS 102050Z 13008KT 32/13 A3016 RMK A01 T03150131  RH  033%=      5-min Rain = 0
KONS 102055Z 12009KT 32/13 A3016 RMK A01 T03180130  RH  033%=      5-min Rain = 0
KONS 102100Z 14009G14KT 32/13 A3015 RMK A01 T03160130  RH  033%=      5-min Rain = 0
KONS 102105Z 14010G19KT 32/13 A3015 RMK A01 T03180130  RH  032%=      5-min Rain = 0
KONS 102110Z 15010G15KT 32/13 A3015 RMK A01 T03200127  RH  031%=      5-min Rain = 0
KONS 102115Z 13008G14KT 32/13 A3014 RMK A01 T03180127  RH  032%=      5-min Rain = 0
KONS 102120Z 13009G15KT 32/13 A3014 RMK A01 T03160127  RH  032%=      5-min Rain = 0
KONS 102125Z 12010KT 31/13 A3014 RMK A01 T03120129  RH  033%=      5-min Rain = 0
KONS 102130Z 16010G15KT 32/13 A3014 RMK A01 T03190128  RH  032%=      5-min Rain = 0
KONS 102135Z 16009G14KT 33/13 A3014 RMK A01 T03250126  RH  030%=      5-min Rain = 0
KONS 102140Z 15008KT 32/12 A3014 RMK A01 T03220124  RH  031%=      5-min Rain = 0
KONS 102145Z 14009G15KT 32/13 A3013 RMK A01 T03200128  RH  032%=      5-min Rain = 0
KONS 102150Z 15009G16KT 32/13 A3013 RMK A01 T03160128  RH  032%=      5-min Rain = 0
KONS 102155Z 12009G15KT 32/13 A3013 RMK A01 T03210130  RH  032%=      5-min Rain = 0
KONS 102200Z 16010G17KT 33/13 A3013 RMK A01 T03250129  RH  031%=      5-min Rain = 0
KONS 102205Z 15008G14KT 33/13 A3013 RMK A01 T03260127  RH  030%=      5-min Rain = 0
KONS 102210Z 16009KT 32/13 A3013 RMK A01 T03240127  RH  031%=      5-min Rain = 0
KONS 102215Z 17013KT 32/13 A3012 RMK A01 T03180130  RH  032%=      5-min Rain = 0
KONS 102220Z 17012KT 31/13 A3012 RMK A01 T03090132  RH  035%=      5-min Rain = 0
KONS 102225Z 17011KT 31/13 A3012 RMK A01 T03050134  RH  036%=      5-min Rain = 0
KONS 102230Z 16011G17KT 30/13 A3012 RMK A01 T03030133  RH  036%=      5-min Rain = 0
KONS 102235Z 17010KT 30/13 A3012 RMK A01 T03030131  RH  036%=      5-min Rain = 0
KONS 102240Z 15010G16KT 31/13 A3012 RMK A01 T03090131  RH  035%=      5-min Rain = 0
KONS 102245Z 15012G17KT 31/13 A3011 RMK A01 T03120131  RH  034%=      5-min Rain = 0
KONS 102250Z 15012KT 31/14 A3012 RMK A01 T03050135  RH  036%=      5-min Rain = 0
KONS 102255Z 15013KT 30/13 A3011 RMK A01 T03030134  RH  036%=      5-min Rain = 0
KONS 102300Z 15012KT 31/13 A3011 RMK A01 T03090133  RH  035%=      5-min Rain = 0
KONS 102305Z 15013KT 31/13 A3011 RMK A01 T03110131  RH  034%=      5-min Rain = 0
KONS 102310Z 15011KT 31/13 A3011 RMK A01 T03060132  RH  035%=      5-min Rain = 0
KONS 102315Z 15010KT 31/13 A3011 RMK A01 T03070131  RH  035%=      5-min Rain = 0
KONS 102320Z 15012KT 31/13 A3011 RMK A01 T03060127  RH  034%=      5-min Rain = 0
KONS 102325Z 16013KT 31/12 A301 RMK A01 T03090124  RH  033%=      5-min Rain = 0
KONS 102330Z 16011KT 31/13 A301 RMK A01 T03110126  RH  033%=      5-min Rain = 0
KONS 102335Z 16013KT 31/12 A301 RMK A01 T03130123  RH  032%=      5-min Rain = 0
KONS 102340Z 16009KT 31/12 A301 RMK A01 T03100124  RH  033%=      5-min Rain = 0
KONS 102345Z 16009KT 31/12 A301 RMK A01 T03080124  RH  033%=      5-min Rain = 0
KONS 102350Z 15009KT 31/12 A301 RMK A01 T03060124  RH  033%=      5-min Rain = 0
KONS 102355Z 17009G14KT 30/12 A301 RMK A01 T03040123  RH  034%=      5-min Rain = 0
KONS 110000Z 16011KT 30/13 A301 RMK A01 T03010127  RH  035%=      5-min Rain = 0
KONS 110005Z 15011KT 30/13 A3009 RMK A01 T03000129  RH  036%=      5-min Rain = 0
KONS 110010Z 15012KT 30/13 A301 RMK A01 T03000130  RH  036%=      5-min Rain = 0
KONS 110015Z 15012KT 30/13 A3009 RMK A01 T03000128  RH  035%=      5-min Rain = 0
KONS 110020Z 16013KT 30/13 A3009 RMK A01 T02990127  RH  035%=      5-min Rain = 0
KONS 110025Z 16013KT 30/13 A301 RMK A01 T02980127  RH  036%=      5-min Rain = 0
KONS 110030Z 16012KT 30/13 A301 RMK A01 T02970126  RH  036%=      5-min Rain = 0
KONS 110035Z 16012KT 30/13 A301 RMK A01 T02960126  RH  036%=      5-min Rain = 0
KONS 110040Z 16010G15KT 30/13 A301 RMK A01 T02970125  RH  035%=      5-min Rain = 0
KONS 110045Z 17009KT 29/13 A301 RMK A01 T02940128  RH  037%=      5-min Rain = 0
KONS 110050Z 17008KT 29/13 A301 RMK A01 T02940127  RH  037%=      5-min Rain = 0
KONS 110055Z 18009KT 30/13 A301 RMK A01 T02950129  RH  037%=      5-min Rain = 0
KONS 110100Z 18009G15KT 30/13 A301 RMK A01 T02950129  RH  037%=      5-min Rain = 0
KONS 110105Z 17013KT 30/13 A301 RMK A01 T02950133  RH  038%=      5-min Rain = 0
KONS 110110Z 17011KT 29/14 A301 RMK A01 T02930135  RH  039%=      5-min Rain = 0
KONS 110115Z 17012KT 29/13 A3011 RMK A01 T02910134  RH  039%=      5-min Rain = 0
KONS 110120Z 17012KT 29/13 A3011 RMK A01 T02890133  RH  039%=      5-min Rain = 0
KONS 110125Z 17010KT 29/13 A3011 RMK A01 T02870133  RH  040%=      5-min Rain = 0
KONS 110130Z 17010KT 29/13 A3011 RMK A01 T02860133  RH  040%=      5-min Rain = 0
KONS 110135Z 16010KT 28/13 A3011 RMK A01 T02830134  RH  041%=      5-min Rain = 0
KONS 110140Z 16010KT 28/13 A3012 RMK A01 T02810134  RH  041%=      5-min Rain = 0
KONS 110145Z 16009KT 28/13 A3012 RMK A01 T02790133  RH  041%=      5-min Rain = 0
KONS 110150Z 16010KT 28/13 A3012 RMK A01 T02780132  RH  042%=      5-min Rain = 0
KONS 110155Z 16009KT 28/13 A3012 RMK A01 T02760131  RH  042%=      5-min Rain = 0
KONS 110200Z 16009KT 27/13 A3012 RMK A01 T02740131  RH  042%=      5-min Rain = 0
KONS 110205Z 16009KT 27/13 A3012 RMK A01 T02720131  RH  043%=      5-min Rain = 0
KONS 110210Z 16009KT 27/13 A3013 RMK A01 T02680131  RH  044%=      5-min Rain = 0
KONS 110215Z 16011KT 27/13 A3013 RMK A01 T02670131  RH  044%=      5-min Rain = 0
KONS 110220Z 16011KT 27/14 A3013 RMK A01 T02670135  RH  045%=      5-min Rain = 0
KONS 110225Z 16010KT 27/14 A3013 RMK A01 T02660141  RH  047%=      5-min Rain = 0
KONS 110230Z 16011KT 26/14 A3013 RMK A01 T02640144  RH  049%=      5-min Rain = 0
KONS 110235Z 16010KT 26/15 A3013 RMK A01 T02630145  RH  049%=      5-min Rain = 0
KONS 110240Z 16010KT 26/15 A3013 RMK A01 T02600145  RH  050%=      5-min Rain = 0
KONS 110245Z 16010KT 26/14 A3013 RMK A01 T02590144  RH  050%=      5-min Rain = 0
KONS 110250Z 16010KT 26/14 A3013 RMK A01 T02590144  RH  050%=      5-min Rain = 0
KONS 110255Z 16010KT 26/14 A3013 RMK A01 T02570144  RH  051%=      5-min Rain = 0
KONS 110300Z 17010KT 26/14 A3013 RMK A01 T02570144  RH  051%=      5-min Rain = 0
KONS 110305Z 17009KT 26/15 A3013 RMK A01 T02570145  RH  051%=      5-min Rain = 0
KONS 110310Z 18010KT 26/15 A3014 RMK A01 T02580147  RH  051%=      5-min Rain = 0
KONS 110315Z 18010KT 26/15 A3014 RMK A01 T02570148  RH  052%=      5-min Rain = 0
KONS 110320Z 18011KT 26/15 A3014 RMK A01 T02560149  RH  053%=      5-min Rain = 0
KONS 110325Z 18011KT 26/15 A3014 RMK A01 T02560149  RH  053%=      5-min Rain = 0
KONS 110330Z 18010KT 26/15 A3015 RMK A01 T02550149  RH  053%=      5-min Rain = 0
KONS 110335Z 18010KT 25/15 A3015 RMK A01 T02540149  RH  053%=      5-min Rain = 0
KONS 110340Z 18009KT 25/15 A3015 RMK A01 T02520150  RH  054%=      5-min Rain = 0
KONS 110345Z 18008KT 25/15 A3015 RMK A01 T02500150  RH  055%=      5-min Rain = 0
KONS 110350Z 18008KT 25/15 A3016 RMK A01 T02480150  RH  056%=      5-min Rain = 0
KONS 110355Z 18008KT 25/15 A3016 RMK A01 T02470150  RH  056%=      5-min Rain = 0
KONS 110400Z 18008KT 25/15 A3016 RMK A01 T02470151  RH  056%=      5-min Rain = 0
KONS 110405Z 18008KT 25/15 A3016 RMK A01 T02460151  RH  057%=      5-min Rain = 0
KONS 110410Z 18007KT 25/15 A3016 RMK A01 T02450151  RH  057%=      5-min Rain = 0
KONS 110415Z 17007KT 24/15 A3016 RMK A01 T02440151  RH  057%=      5-min Rain = 0
KONS 110420Z 18007KT 25/15 A3016 RMK A01 T02450151  RH  057%=      5-min Rain = 0
KONS 110425Z 18007KT 24/15 A3016 RMK A01 T02430152  RH  058%=      5-min Rain = 0
KONS 110430Z 18006KT 24/15 A3016 RMK A01 T02390152  RH  060%=      5-min Rain = 0
KONS 110435Z 17005KT 24/15 A3016 RMK A01 T02360152  RH  060%=      5-min Rain = 0
KONS 110440Z 17005KT 23/15 A3017 RMK A01 T02340151  RH  061%=      5-min Rain = 0
KONS 110445Z 17007KT 23/15 A3016 RMK A01 T02320151  RH  062%=      5-min Rain = 0
KONS 110450Z 17007KT 23/15 A3016 RMK A01 T02290152  RH  063%=      5-min Rain = 0
KONS 110455Z 17007KT 23/15 A3016 RMK A01 T02280152  RH  064%=      5-min Rain = 0

Page generated in 0.0096 seconds.